sensor_id;sensor_type;location;lat;lon;timestamp;P1;durP1;ratioP1;P2;durP2;ratioP2
29280;SDS011;25048;49.590;11.026;2023-03-05T00:01:09;32.80;;;12.27;;
29280;SDS011;25048;49.590;11.026;2023-03-05T00:03:39;29.60;;;11.57;;
29280;SDS011;25048;49.590;11.026;2023-03-05T00:06:07;30.60;;;12.93;;
29280;SDS011;25048;49.590;11.026;2023-03-05T00:08:34;38.30;;;12.17;;
29280;SDS011;25048;49.590;11.026;2023-03-05T00:11:04;29.33;;;12.43;;
29280;SDS011;25048;49.590;11.026;2023-03-05T00:13:33;42.53;;;13.50;;
29280;SDS011;25048;49.590;11.026;2023-03-05T00:16:07;32.23;;;11.63;;
29280;SDS011;25048;49.590;11.026;2023-03-05T00:18:31;29.30;;;11.93;;
29280;SDS011;25048;49.590;11.026;2023-03-05T00:20:59;37.53;;;14.37;;
29280;SDS011;25048;49.590;11.026;2023-03-05T00:23:26;40.13;;;13.00;;
29280;SDS011;25048;49.590;11.026;2023-03-05T00:25:54;36.60;;;13.40;;
29280;SDS011;25048;49.590;11.026;2023-03-05T00:28:21;32.63;;;13.13;;
29280;SDS011;25048;49.590;11.026;2023-03-05T00:30:49;34.30;;;14.53;;
29280;SDS011;25048;49.590;11.026;2023-03-05T00:33:16;29.20;;;11.77;;
29280;SDS011;25048;49.590;11.026;2023-03-05T00:35:44;30.20;;;12.47;;
29280;SDS011;25048;49.590;11.026;2023-03-05T00:38:12;34.87;;;12.70;;
29280;SDS011;25048;49.590;11.026;2023-03-05T00:40:40;33.70;;;13.97;;
29280;SDS011;25048;49.590;11.026;2023-03-05T00:43:08;32.57;;;12.67;;
29280;SDS011;25048;49.590;11.026;2023-03-05T00:45:35;42.13;;;14.20;;
29280;SDS011;25048;49.590;11.026;2023-03-05T00:48:03;39.27;;;14.40;;
29280;SDS011;25048;49.590;11.026;2023-03-05T00:50:31;37.60;;;13.53;;
29280;SDS011;25048;49.590;11.026;2023-03-05T00:52:58;34.60;;;14.77;;
29280;SDS011;25048;49.590;11.026;2023-03-05T00:55:26;40.00;;;13.83;;
29280;SDS011;25048;49.590;11.026;2023-03-05T00:57:53;38.53;;;14.43;;
29280;SDS011;25048;49.590;11.026;2023-03-05T01:00:21;33.73;;;13.93;;
29280;SDS011;25048;49.590;11.026;2023-03-05T01:02:48;36.87;;;14.40;;
29280;SDS011;25048;49.590;11.026;2023-03-05T01:05:16;35.93;;;13.83;;
29280;SDS011;25048;49.590;11.026;2023-03-05T01:07:43;35.73;;;14.00;;
29280;SDS011;25048;49.590;11.026;2023-03-05T01:10:11;34.63;;;13.20;;
29280;SDS011;25048;49.590;11.026;2023-03-05T01:12:38;38.43;;;14.07;;
29280;SDS011;25048;49.590;11.026;2023-03-05T01:15:06;34.27;;;13.97;;
29280;SDS011;25048;49.590;11.026;2023-03-05T01:17:34;32.23;;;13.20;;
29280;SDS011;25048;49.590;11.026;2023-03-05T01:20:01;35.97;;;13.43;;
29280;SDS011;25048;49.590;11.026;2023-03-05T01:22:29;35.57;;;13.77;;
29280;SDS011;25048;49.590;11.026;2023-03-05T01:24:57;42.97;;;13.83;;
29280;SDS011;25048;49.590;11.026;2023-03-05T01:27:24;38.43;;;13.67;;
29280;SDS011;25048;49.590;11.026;2023-03-05T01:29:52;36.60;;;13.60;;
29280;SDS011;25048;49.590;11.026;2023-03-05T01:32:19;37.43;;;13.70;;
29280;SDS011;25048;49.590;11.026;2023-03-05T01:34:47;46.10;;;14.53;;
29280;SDS011;25048;49.590;11.026;2023-03-05T01:37:14;37.77;;;14.00;;
29280;SDS011;25048;49.590;11.026;2023-03-05T01:39:42;34.97;;;14.00;;
29280;SDS011;25048;49.590;11.026;2023-03-05T01:42:09;38.17;;;13.97;;
29280;SDS011;25048;49.590;11.026;2023-03-05T01:44:37;40.13;;;13.80;;
29280;SDS011;25048;49.590;11.026;2023-03-05T01:47:05;36.13;;;13.27;;
29280;SDS011;25048;49.590;11.026;2023-03-05T01:49:36;34.13;;;13.73;;
29280;SDS011;25048;49.590;11.026;2023-03-05T01:52:06;37.63;;;12.53;;
29280;SDS011;25048;49.590;11.026;2023-03-05T01:54:45;46.00;;;15.07;;
29280;SDS011;25048;49.590;11.026;2023-03-05T01:57:14;42.07;;;14.27;;
29280;SDS011;25048;49.590;11.026;2023-03-05T01:59:45;36.90;;;14.50;;
29280;SDS011;25048;49.590;11.026;2023-03-05T02:02:15;33.93;;;12.13;;
29280;SDS011;25048;49.590;11.026;2023-03-05T02:04:49;32.87;;;12.27;;
29280;SDS011;25048;49.590;11.026;2023-03-05T02:07:19;31.67;;;13.33;;
29280;SDS011;25048;49.590;11.026;2023-03-05T02:09:48;29.33;;;12.37;;
29280;SDS011;25048;49.590;11.026;2023-03-05T02:12:15;36.37;;;13.27;;
29280;SDS011;25048;49.590;11.026;2023-03-05T02:14:44;32.17;;;12.77;;
29280;SDS011;25048;49.590;11.026;2023-03-05T02:17:14;33.17;;;13.57;;
29280;SDS011;25048;49.590;11.026;2023-03-05T02:19:46;33.93;;;12.83;;
29280;SDS011;25048;49.590;11.026;2023-03-05T02:22:15;32.23;;;11.67;;
29280;SDS011;25048;49.590;11.026;2023-03-05T02:24:44;33.67;;;12.90;;
29280;SDS011;25048;49.590;11.026;2023-03-05T02:27:12;30.77;;;12.37;;
29280;SDS011;25048;49.590;11.026;2023-03-05T02:29:41;32.00;;;12.13;;
29280;SDS011;25048;49.590;11.026;2023-03-05T02:32:11;32.30;;;12.13;;
29280;SDS011;25048;49.590;11.026;2023-03-05T02:34:38;29.27;;;11.90;;
29280;SDS011;25048;49.590;11.026;2023-03-05T02:37:06;34.30;;;11.17;;
29280;SDS011;25048;49.590;11.026;2023-03-05T02:39:35;30.63;;;11.93;;
29280;SDS011;25048;49.590;11.026;2023-03-05T02:42:03;24.17;;;10.23;;
29280;SDS011;25048;49.590;11.026;2023-03-05T02:44:30;32.57;;;11.13;;
29280;SDS011;25048;49.590;11.026;2023-03-05T02:46:58;30.47;;;10.37;;
29280;SDS011;25048;49.590;11.026;2023-03-05T02:49:26;28.77;;;11.90;;
29280;SDS011;25048;49.590;11.026;2023-03-05T02:51:53;30.03;;;11.50;;
29280;SDS011;25048;49.590;11.026;2023-03-05T02:54:21;22.90;;;10.03;;
29280;SDS011;25048;49.590;11.026;2023-03-05T02:56:48;27.23;;;10.27;;
29280;SDS011;25048;49.590;11.026;2023-03-05T02:59:16;32.27;;;10.67;;
29280;SDS011;25048;49.590;11.026;2023-03-05T03:01:44;25.47;;;9.43;;
29280;SDS011;25048;49.590;11.026;2023-03-05T03:04:11;25.80;;;10.03;;
29280;SDS011;25048;49.590;11.026;2023-03-05T03:06:39;21.73;;;9.83;;
29280;SDS011;25048;49.590;11.026;2023-03-05T03:09:06;21.47;;;9.03;;
29280;SDS011;25048;49.590;11.026;2023-03-05T03:11:34;26.80;;;9.43;;
29280;SDS011;25048;49.590;11.026;2023-03-05T03:14:01;27.00;;;9.03;;
29280;SDS011;25048;49.590;11.026;2023-03-05T03:16:28;20.70;;;9.23;;
29280;SDS011;25048;49.590;11.026;2023-03-05T03:18:56;25.30;;;9.00;;
29280;SDS011;25048;49.590;11.026;2023-03-05T03:21:24;28.17;;;9.00;;
29280;SDS011;25048;49.590;11.026;2023-03-05T03:23:52;20.80;;;8.83;;
29280;SDS011;25048;49.590;11.026;2023-03-05T03:26:19;21.50;;;9.37;;
29280;SDS011;25048;49.590;11.026;2023-03-05T03:28:47;16.27;;;7.67;;
29280;SDS011;25048;49.590;11.026;2023-03-05T03:31:14;24.37;;;7.57;;
29280;SDS011;25048;49.590;11.026;2023-03-05T03:33:42;19.10;;;8.03;;
29280;SDS011;25048;49.590;11.026;2023-03-05T03:36:10;25.43;;;8.50;;
29280;SDS011;25048;49.590;11.026;2023-03-05T03:38:38;18.17;;;7.63;;
29280;SDS011;25048;49.590;11.026;2023-03-05T03:41:06;22.77;;;9.33;;
29280;SDS011;25048;49.590;11.026;2023-03-05T03:43:34;21.13;;;8.20;;
29280;SDS011;25048;49.590;11.026;2023-03-05T03:46:05;20.60;;;7.97;;
29280;SDS011;25048;49.590;11.026;2023-03-05T03:48:33;22.20;;;9.50;;
29280;SDS011;25048;49.590;11.026;2023-03-05T03:51:06;23.77;;;9.20;;
29280;SDS011;25048;49.590;11.026;2023-03-05T03:53:31;27.77;;;10.40;;
29280;SDS011;25048;49.590;11.026;2023-03-05T03:55:59;26.60;;;8.40;;
29280;SDS011;25048;49.590;11.026;2023-03-05T03:58:26;26.33;;;9.13;;
29280;SDS011;25048;49.590;11.026;2023-03-05T04:00:54;22.43;;;9.73;;
29280;SDS011;25048;49.590;11.026;2023-03-05T04:03:21;29.67;;;10.03;;
29280;SDS011;25048;49.590;11.026;2023-03-05T04:05:49;35.87;;;10.40;;
29280;SDS011;25048;49.590;11.026;2023-03-05T04:08:16;23.63;;;10.00;;
29280;SDS011;25048;49.590;11.026;2023-03-05T04:10:44;28.07;;;10.40;;
29280;SDS011;25048;49.590;11.026;2023-03-05T04:13:11;32.77;;;11.30;;
29280;SDS011;25048;49.590;11.026;2023-03-05T04:15:39;22.97;;;10.27;;
29280;SDS011;25048;49.590;11.026;2023-03-05T04:18:06;34.87;;;10.73;;
29280;SDS011;25048;49.590;11.026;2023-03-05T04:20:34;24.27;;;10.23;;
29280;SDS011;25048;49.590;11.026;2023-03-05T04:23:02;33.07;;;10.93;;
29280;SDS011;25048;49.590;11.026;2023-03-05T04:25:29;24.77;;;10.57;;
29280;SDS011;25048;49.590;11.026;2023-03-05T04:27:57;22.53;;;9.27;;
29280;SDS011;25048;49.590;11.026;2023-03-05T04:30:24;31.83;;;12.60;;
29280;SDS011;25048;49.590;11.026;2023-03-05T04:32:52;38.27;;;12.30;;
29280;SDS011;25048;49.590;11.026;2023-03-05T04:35:19;28.30;;;10.77;;
29280;SDS011;25048;49.590;11.026;2023-03-05T04:37:47;36.17;;;12.77;;
29280;SDS011;25048;49.590;11.026;2023-03-05T04:40:15;31.97;;;11.93;;
29280;SDS011;25048;49.590;11.026;2023-03-05T04:42:43;27.43;;;11.40;;
29280;SDS011;25048;49.590;11.026;2023-03-05T04:45:10;31.37;;;12.40;;
29280;SDS011;25048;49.590;11.026;2023-03-05T04:47:38;31.37;;;11.77;;
29280;SDS011;25048;49.590;11.026;2023-03-05T04:50:06;30.97;;;12.53;;
29280;SDS011;25048;49.590;11.026;2023-03-05T04:52:36;34.60;;;13.40;;
29280;SDS011;25048;49.590;11.026;2023-03-05T04:55:05;41.13;;;13.93;;
29280;SDS011;25048;49.590;11.026;2023-03-05T04:57:34;35.03;;;13.50;;
29280;SDS011;25048;49.590;11.026;2023-03-05T05:00:09;36.40;;;12.77;;
29280;SDS011;25048;49.590;11.026;2023-03-05T05:02:32;39.90;;;15.37;;
29280;SDS011;25048;49.590;11.026;2023-03-05T05:05:00;38.47;;;14.73;;
29280;SDS011;25048;49.590;11.026;2023-03-05T05:07:27;43.57;;;16.73;;
29280;SDS011;25048;49.590;11.026;2023-03-05T05:09:57;39.90;;;14.40;;
29280;SDS011;25048;49.590;11.026;2023-03-05T05:12:26;38.13;;;14.43;;
29280;SDS011;25048;49.590;11.026;2023-03-05T05:14:56;43.83;;;14.83;;
29280;SDS011;25048;49.590;11.026;2023-03-05T05:17:24;41.17;;;14.67;;
29280;SDS011;25048;49.590;11.026;2023-03-05T05:19:52;36.13;;;14.67;;
29280;SDS011;25048;49.590;11.026;2023-03-05T05:22:20;41.77;;;14.53;;
29280;SDS011;25048;49.590;11.026;2023-03-05T05:24:47;44.20;;;15.30;;
29280;SDS011;25048;49.590;11.026;2023-03-05T05:27:15;38.87;;;13.30;;
29280;SDS011;25048;49.590;11.026;2023-03-05T05:29:42;44.43;;;15.37;;
29280;SDS011;25048;49.590;11.026;2023-03-05T05:32:11;37.70;;;14.73;;
29280;SDS011;25048;49.590;11.026;2023-03-05T05:34:39;40.27;;;15.30;;
29280;SDS011;25048;49.590;11.026;2023-03-05T05:37:06;39.47;;;14.67;;
29280;SDS011;25048;49.590;11.026;2023-03-05T05:39:34;39.70;;;15.10;;
29280;SDS011;25048;49.590;11.026;2023-03-05T05:42:02;37.03;;;14.10;;
29280;SDS011;25048;49.590;11.026;2023-03-05T05:44:29;40.07;;;14.00;;
29280;SDS011;25048;49.590;11.026;2023-03-05T05:46:59;42.37;;;14.97;;
29280;SDS011;25048;49.590;11.026;2023-03-05T05:49:26;38.87;;;14.53;;
29280;SDS011;25048;49.590;11.026;2023-03-05T05:51:54;39.37;;;13.57;;
29280;SDS011;25048;49.590;11.026;2023-03-05T05:54:22;40.97;;;15.10;;
29280;SDS011;25048;49.590;11.026;2023-03-05T05:56:50;38.47;;;14.17;;
29280;SDS011;25048;49.590;11.026;2023-03-05T05:59:17;41.27;;;15.47;;
29280;SDS011;25048;49.590;11.026;2023-03-05T06:01:45;42.33;;;15.00;;
29280;SDS011;25048;49.590;11.026;2023-03-05T06:04:12;32.40;;;13.17;;
29280;SDS011;25048;49.590;11.026;2023-03-05T06:06:40;37.87;;;13.67;;
29280;SDS011;25048;49.590;11.026;2023-03-05T06:09:07;36.13;;;13.00;;
29280;SDS011;25048;49.590;11.026;2023-03-05T06:11:36;40.37;;;14.47;;
29280;SDS011;25048;49.590;11.026;2023-03-05T06:14:04;36.97;;;14.03;;
29280;SDS011;25048;49.590;11.026;2023-03-05T06:16:33;37.77;;;13.07;;
29280;SDS011;25048;49.590;11.026;2023-03-05T06:19:01;41.47;;;14.80;;
29280;SDS011;25048;49.590;11.026;2023-03-05T06:21:31;39.20;;;14.20;;
29280;SDS011;25048;49.590;11.026;2023-03-05T06:23:58;36.40;;;14.47;;
29280;SDS011;25048;49.590;11.026;2023-03-05T06:26:26;37.50;;;13.60;;
29280;SDS011;25048;49.590;11.026;2023-03-05T06:28:54;32.10;;;12.73;;
29280;SDS011;25048;49.590;11.026;2023-03-05T06:31:22;34.90;;;13.10;;
29280;SDS011;25048;49.590;11.026;2023-03-05T06:33:52;36.20;;;13.63;;
29280;SDS011;25048;49.590;11.026;2023-03-05T06:36:21;29.87;;;12.27;;
29280;SDS011;25048;49.590;11.026;2023-03-05T06:38:50;32.50;;;12.90;;
29280;SDS011;25048;49.590;11.026;2023-03-05T06:41:19;35.83;;;13.07;;
29280;SDS011;25048;49.590;11.026;2023-03-05T06:43:48;34.53;;;12.87;;
29280;SDS011;25048;49.590;11.026;2023-03-05T06:46:23;41.23;;;13.73;;
29280;SDS011;25048;49.590;11.026;2023-03-05T06:48:53;34.50;;;13.43;;
29280;SDS011;25048;49.590;11.026;2023-03-05T06:51:29;43.57;;;14.97;;
29280;SDS011;25048;49.590;11.026;2023-03-05T06:53:53;40.60;;;14.13;;
29280;SDS011;25048;49.590;11.026;2023-03-05T06:56:22;44.70;;;15.10;;
29280;SDS011;25048;49.590;11.026;2023-03-05T06:58:50;37.43;;;13.87;;
29280;SDS011;25048;49.590;11.026;2023-03-05T07:01:18;46.43;;;15.47;;
29280;SDS011;25048;49.590;11.026;2023-03-05T07:03:50;41.23;;;14.73;;
29280;SDS011;25048;49.590;11.026;2023-03-05T07:06:19;52.33;;;16.37;;
29280;SDS011;25048;49.590;11.026;2023-03-05T07:08:48;47.20;;;16.17;;
29280;SDS011;25048;49.590;11.026;2023-03-05T07:11:16;41.57;;;15.90;;
29280;SDS011;25048;49.590;11.026;2023-03-05T07:13:45;41.27;;;16.50;;
29280;SDS011;25048;49.590;11.026;2023-03-05T07:16:14;42.60;;;15.80;;
29280;SDS011;25048;49.590;11.026;2023-03-05T07:18:43;47.30;;;15.33;;
29280;SDS011;25048;49.590;11.026;2023-03-05T07:21:14;47.07;;;16.30;;
29280;SDS011;25048;49.590;11.026;2023-03-05T07:23:42;48.53;;;18.13;;
29280;SDS011;25048;49.590;11.026;2023-03-05T07:26:09;46.40;;;16.07;;
29280;SDS011;25048;49.590;11.026;2023-03-05T07:28:37;47.40;;;14.57;;
29280;SDS011;25048;49.590;11.026;2023-03-05T07:31:07;44.47;;;14.43;;
29280;SDS011;25048;49.590;11.026;2023-03-05T07:33:36;38.30;;;14.50;;
29280;SDS011;25048;49.590;11.026;2023-03-05T07:36:05;42.83;;;16.53;;
29280;SDS011;25048;49.590;11.026;2023-03-05T07:38:36;42.13;;;14.97;;
29280;SDS011;25048;49.590;11.026;2023-03-05T07:41:09;31.77;;;13.63;;
29280;SDS011;25048;49.590;11.026;2023-03-05T07:43:34;38.73;;;14.27;;
29280;SDS011;25048;49.590;11.026;2023-03-05T07:46:03;42.77;;;13.70;;
29280;SDS011;25048;49.590;11.026;2023-03-05T07:48:31;31.67;;;12.50;;
29280;SDS011;25048;49.590;11.026;2023-03-05T07:51:00;33.00;;;13.70;;
29280;SDS011;25048;49.590;11.026;2023-03-05T07:53:29;38.40;;;13.73;;
29280;SDS011;25048;49.590;11.026;2023-03-05T07:55:57;36.47;;;12.57;;
29280;SDS011;25048;49.590;11.026;2023-03-05T07:58:24;36.00;;;11.97;;
29280;SDS011;25048;49.590;11.026;2023-03-05T08:00:52;30.77;;;11.93;;
29280;SDS011;25048;49.590;11.026;2023-03-05T08:03:20;25.17;;;11.03;;
29280;SDS011;25048;49.590;11.026;2023-03-05T08:05:47;31.60;;;12.53;;
29280;SDS011;25048;49.590;11.026;2023-03-05T08:08:15;29.23;;;11.07;;
29280;SDS011;25048;49.590;11.026;2023-03-05T08:10:43;31.97;;;11.90;;
29280;SDS011;25048;49.590;11.026;2023-03-05T08:13:10;27.00;;;11.17;;
29280;SDS011;25048;49.590;11.026;2023-03-05T08:15:38;26.10;;;11.00;;
29280;SDS011;25048;49.590;11.026;2023-03-05T08:18:05;23.50;;;9.63;;
29280;SDS011;25048;49.590;11.026;2023-03-05T08:20:36;21.73;;;7.87;;
29280;SDS011;25048;49.590;11.026;2023-03-05T08:23:04;19.97;;;9.17;;
29280;SDS011;25048;49.590;11.026;2023-03-05T08:25:31;23.10;;;9.07;;
29280;SDS011;25048;49.590;11.026;2023-03-05T08:27:59;19.80;;;8.37;;
29280;SDS011;25048;49.590;11.026;2023-03-05T08:30:26;22.03;;;8.43;;
29280;SDS011;25048;49.590;11.026;2023-03-05T08:32:54;23.03;;;7.93;;
29280;SDS011;25048;49.590;11.026;2023-03-05T08:35:22;20.27;;;8.50;;
29280;SDS011;25048;49.590;11.026;2023-03-05T08:37:49;22.47;;;8.70;;
29280;SDS011;25048;49.590;11.026;2023-03-05T08:40:17;21.27;;;8.00;;
29280;SDS011;25048;49.590;11.026;2023-03-05T08:42:45;21.07;;;8.93;;
29280;SDS011;25048;49.590;11.026;2023-03-05T08:45:12;21.80;;;8.00;;
29280;SDS011;25048;49.590;11.026;2023-03-05T08:47:40;25.27;;;8.37;;
29280;SDS011;25048;49.590;11.026;2023-03-05T08:50:07;15.97;;;6.43;;
29280;SDS011;25048;49.590;11.026;2023-03-05T08:52:35;16.30;;;6.97;;
29280;SDS011;25048;49.590;11.026;2023-03-05T08:55:03;17.40;;;6.87;;
29280;SDS011;25048;49.590;11.026;2023-03-05T08:57:31;13.90;;;6.07;;
29280;SDS011;25048;49.590;11.026;2023-03-05T08:59:58;12.47;;;5.43;;
29280;SDS011;25048;49.590;11.026;2023-03-05T09:02:26;16.67;;;5.83;;
29280;SDS011;25048;49.590;11.026;2023-03-05T09:04:53;15.43;;;5.93;;
29280;SDS011;25048;49.590;11.026;2023-03-05T09:07:21;14.60;;;6.10;;
29280;SDS011;25048;49.590;11.026;2023-03-05T09:09:48;15.37;;;6.03;;
29280;SDS011;25048;49.590;11.026;2023-03-05T09:12:16;15.03;;;5.73;;
29280;SDS011;25048;49.590;11.026;2023-03-05T09:14:43;15.03;;;4.93;;
29280;SDS011;25048;49.590;11.026;2023-03-05T09:17:11;14.77;;;6.07;;
29280;SDS011;25048;49.590;11.026;2023-03-05T09:19:38;12.40;;;5.33;;
29280;SDS011;25048;49.590;11.026;2023-03-05T09:22:06;12.93;;;5.63;;
29280;SDS011;25048;49.590;11.026;2023-03-05T09:24:33;11.97;;;4.50;;
29280;SDS011;25048;49.590;11.026;2023-03-05T09:27:01;13.93;;;4.20;;
29280;SDS011;25048;49.590;11.026;2023-03-05T09:29:28;11.83;;;4.23;;
29280;SDS011;25048;49.590;11.026;2023-03-05T09:31:56;7.53;;;3.23;;
29280;SDS011;25048;49.590;11.026;2023-03-05T09:34:23;11.50;;;3.43;;
29280;SDS011;25048;49.590;11.026;2023-03-05T09:36:51;5.63;;;3.43;;
29280;SDS011;25048;49.590;11.026;2023-03-05T09:39:18;12.87;;;3.80;;
29280;SDS011;25048;49.590;11.026;2023-03-05T09:44:35;5.53;;;3.00;;
29280;SDS011;25048;49.590;11.026;2023-03-05T09:47:24;7.80;;;2.70;;
29280;SDS011;25048;49.590;11.026;2023-03-05T09:53:16;8.30;;;2.70;;
29280;SDS011;25048;49.590;11.026;2023-03-05T09:55:46;8.23;;;2.83;;
29280;SDS011;25048;49.590;11.026;2023-03-05T09:58:25;6.23;;;3.00;;
29280;SDS011;25048;49.590;11.026;2023-03-05T10:00:56;10.43;;;2.93;;
29280;SDS011;25048;49.590;11.026;2023-03-05T10:03:38;7.57;;;2.57;;
29280;SDS011;25048;49.590;11.026;2023-03-05T10:06:24;6.50;;;2.70;;
29280;SDS011;25048;49.590;11.026;2023-03-05T10:11:35;6.13;;;2.83;;
29280;SDS011;25048;49.590;11.026;2023-03-05T10:14:28;3.70;;;2.30;;
29280;SDS011;25048;49.590;11.026;2023-03-05T10:22:38;7.37;;;2.70;;
29280;SDS011;25048;49.590;11.026;2023-03-05T10:27:48;7.87;;;2.10;;
29280;SDS011;25048;49.590;11.026;2023-03-05T10:30:22;2.67;;;1.90;;
29280;SDS011;25048;49.590;11.026;2023-03-05T10:39:04;8.57;;;2.13;;
29280;SDS011;25048;49.590;11.026;2023-03-05T10:42:00;5.23;;;2.10;;
29280;SDS011;25048;49.590;11.026;2023-03-05T10:44:53;3.57;;;1.37;;
29280;SDS011;25048;49.590;11.026;2023-03-05T10:50:20;5.50;;;1.80;;
29280;SDS011;25048;49.590;11.026;2023-03-05T10:52:51;4.73;;;1.97;;
29280;SDS011;25048;49.590;11.026;2023-03-05T10:55:31;7.07;;;1.83;;
29280;SDS011;25048;49.590;11.026;2023-03-05T10:57:59;7.60;;;1.63;;
29280;SDS011;25048;49.590;11.026;2023-03-05T11:00:29;4.60;;;2.27;;
29280;SDS011;25048;49.590;11.026;2023-03-05T11:03:00;9.23;;;2.20;;
29280;SDS011;25048;49.590;11.026;2023-03-05T11:05:38;7.37;;;2.10;;
29280;SDS011;25048;49.590;11.026;2023-03-05T11:11:05;4.27;;;2.00;;
29280;SDS011;25048;49.590;11.026;2023-03-05T11:13:42;3.47;;;1.97;;
29280;SDS011;25048;49.590;11.026;2023-03-05T11:16:31;4.70;;;2.47;;
29280;SDS011;25048;49.590;11.026;2023-03-05T11:24:39;9.10;;;2.10;;
29280;SDS011;25048;49.590;11.026;2023-03-05T11:27:23;3.47;;;2.00;;
29280;SDS011;25048;49.590;11.026;2023-03-05T11:29:58;2.80;;;1.90;;
29280;SDS011;25048;49.590;11.026;2023-03-05T11:32:27;3.00;;;1.87;;
29280;SDS011;25048;49.590;11.026;2023-03-05T11:34:56;2.83;;;1.60;;
29280;SDS011;25048;49.590;11.026;2023-03-05T11:37:28;3.90;;;2.00;;
29280;SDS011;25048;49.590;11.026;2023-03-05T11:42:42;2.67;;;1.97;;
29280;SDS011;25048;49.590;11.026;2023-03-05T11:45:13;3.93;;;1.57;;
29280;SDS011;25048;49.590;11.026;2023-03-05T11:47:48;3.20;;;1.57;;
29280;SDS011;25048;49.590;11.026;2023-03-05T11:52:56;2.00;;;1.53;;
29280;SDS011;25048;49.590;11.026;2023-03-05T11:55:44;6.67;;;1.70;;
29280;SDS011;25048;49.590;11.026;2023-03-05T12:00:59;4.40;;;1.10;;
29280;SDS011;25048;49.590;11.026;2023-03-05T12:03:31;2.30;;;1.43;;
29280;SDS011;25048;49.590;11.026;2023-03-05T12:06:08;3.93;;;1.60;;
29280;SDS011;25048;49.590;11.026;2023-03-05T12:08:43;3.17;;;1.20;;
29280;SDS011;25048;49.590;11.026;2023-03-05T12:11:20;6.40;;;1.60;;
29280;SDS011;25048;49.590;11.026;2023-03-05T12:13:47;3.77;;;1.57;;
29280;SDS011;25048;49.590;11.026;2023-03-05T12:16:21;2.20;;;1.20;;
29280;SDS011;25048;49.590;11.026;2023-03-05T12:19:09;3.17;;;1.53;;
29280;SDS011;25048;49.590;11.026;2023-03-05T12:21:43;4.23;;;1.93;;
29280;SDS011;25048;49.590;11.026;2023-03-05T12:29:47;2.03;;;1.30;;
29280;SDS011;25048;49.590;11.026;2023-03-05T12:40:28;6.97;;;2.70;;
29280;SDS011;25048;49.590;11.026;2023-03-05T12:45:40;3.73;;;1.70;;
29280;SDS011;25048;49.590;11.026;2023-03-05T12:50:46;4.00;;;1.73;;
29280;SDS011;25048;49.590;11.026;2023-03-05T12:53:17;6.37;;;2.20;;
29280;SDS011;25048;49.590;11.026;2023-03-05T12:56:00;4.00;;;1.60;;
29280;SDS011;25048;49.590;11.026;2023-03-05T12:58:54;6.70;;;1.80;;
29280;SDS011;25048;49.590;11.026;2023-03-05T13:02:01;2.07;;;1.33;;
29280;SDS011;25048;49.590;11.026;2023-03-05T13:04:18;2.77;;;1.43;;
29280;SDS011;25048;49.590;11.026;2023-03-05T13:06:58;2.87;;;1.77;;
29280;SDS011;25048;49.590;11.026;2023-03-05T13:09:29;3.20;;;1.50;;
29280;SDS011;25048;49.590;11.026;2023-03-05T13:12:00;6.13;;;1.50;;
29280;SDS011;25048;49.590;11.026;2023-03-05T13:14:34;2.53;;;1.40;;
29280;SDS011;25048;49.590;11.026;2023-03-05T13:17:22;1.90;;;1.33;;
29280;SDS011;25048;49.590;11.026;2023-03-05T13:19:51;2.50;;;1.50;;
29280;SDS011;25048;49.590;11.026;2023-03-05T13:22:28;2.80;;;1.70;;
29280;SDS011;25048;49.590;11.026;2023-03-05T13:27:47;6.07;;;1.90;;
29280;SDS011;25048;49.590;11.026;2023-03-05T13:30:22;5.57;;;1.73;;
29280;SDS011;25048;49.590;11.026;2023-03-05T13:32:59;2.13;;;1.60;;
29280;SDS011;25048;49.590;11.026;2023-03-05T13:35:21;5.97;;;1.60;;
29280;SDS011;25048;49.590;11.026;2023-03-05T13:37:49;4.43;;;1.93;;
29280;SDS011;25048;49.590;11.026;2023-03-05T13:40:19;3.50;;;1.70;;
29280;SDS011;25048;49.590;11.026;2023-03-05T13:42:53;5.07;;;1.70;;
29280;SDS011;25048;49.590;11.026;2023-03-05T13:45:24;2.33;;;1.50;;
29280;SDS011;25048;49.590;11.026;2023-03-05T13:47:54;3.90;;;1.97;;
29280;SDS011;25048;49.590;11.026;2023-03-05T13:50:33;3.03;;;2.10;;
29280;SDS011;25048;49.590;11.026;2023-03-05T13:55:47;4.10;;;1.97;;
29280;SDS011;25048;49.590;11.026;2023-03-05T14:04:20;4.47;;;2.23;;
29280;SDS011;25048;49.590;11.026;2023-03-05T14:06:36;3.63;;;1.83;;
29280;SDS011;25048;49.590;11.026;2023-03-05T14:09:06;5.00;;;2.57;;
29280;SDS011;25048;49.590;11.026;2023-03-05T14:11:38;7.10;;;2.67;;
29280;SDS011;25048;49.590;11.026;2023-03-05T14:14:07;6.40;;;2.60;;
29280;SDS011;25048;49.590;11.026;2023-03-05T14:16:36;4.30;;;2.20;;
29280;SDS011;25048;49.590;11.026;2023-03-05T14:19:03;6.30;;;2.30;;
29280;SDS011;25048;49.590;11.026;2023-03-05T14:21:43;4.47;;;2.57;;
29280;SDS011;25048;49.590;11.026;2023-03-05T14:24:13;6.57;;;2.77;;
29280;SDS011;25048;49.590;11.026;2023-03-05T14:26:52;3.23;;;2.23;;
29280;SDS011;25048;49.590;11.026;2023-03-05T14:29:24;6.70;;;2.30;;
29280;SDS011;25048;49.590;11.026;2023-03-05T14:34:24;3.50;;;2.10;;
29280;SDS011;25048;49.590;11.026;2023-03-05T14:37:06;5.30;;;2.20;;
29280;SDS011;25048;49.590;11.026;2023-03-05T14:45:19;5.80;;;2.87;;
29280;SDS011;25048;49.590;11.026;2023-03-05T14:47:36;7.70;;;2.80;;
29280;SDS011;25048;49.590;11.026;2023-03-05T14:50:05;6.23;;;3.10;;
29280;SDS011;25048;49.590;11.026;2023-03-05T14:52:33;8.17;;;2.80;;
29280;SDS011;25048;49.590;11.026;2023-03-05T14:55:00;6.43;;;3.13;;
29280;SDS011;25048;49.590;11.026;2023-03-05T14:57:28;6.77;;;3.00;;
29280;SDS011;25048;49.590;11.026;2023-03-05T14:59:58;8.10;;;3.40;;
29280;SDS011;25048;49.590;11.026;2023-03-05T15:02:25;4.40;;;2.80;;
29280;SDS011;25048;49.590;11.026;2023-03-05T15:04:53;5.30;;;2.70;;
29280;SDS011;25048;49.590;11.026;2023-03-05T15:09:51;5.80;;;3.17;;
29280;SDS011;25048;49.590;11.026;2023-03-05T15:12:19;5.47;;;2.70;;
29280;SDS011;25048;49.590;11.026;2023-03-05T15:14:49;4.70;;;2.83;;
29280;SDS011;25048;49.590;11.026;2023-03-05T15:17:22;8.67;;;3.03;;
29280;SDS011;25048;49.590;11.026;2023-03-05T15:19:57;7.10;;;3.33;;
29280;SDS011;25048;49.590;11.026;2023-03-05T15:22:25;7.60;;;3.13;;
29280;SDS011;25048;49.590;11.026;2023-03-05T15:24:53;5.43;;;2.90;;
29280;SDS011;25048;49.590;11.026;2023-03-05T15:27:20;5.20;;;3.13;;
29280;SDS011;25048;49.590;11.026;2023-03-05T15:29:48;4.93;;;2.50;;
29280;SDS011;25048;49.590;11.026;2023-03-05T15:32:19;6.37;;;3.07;;
29280;SDS011;25048;49.590;11.026;2023-03-05T15:34:47;5.90;;;3.27;;
29280;SDS011;25048;49.590;11.026;2023-03-05T15:37:14;7.27;;;3.63;;
29280;SDS011;25048;49.590;11.026;2023-03-05T15:39:42;9.67;;;3.20;;
29280;SDS011;25048;49.590;11.026;2023-03-05T15:42:09;8.07;;;3.03;;
29280;SDS011;25048;49.590;11.026;2023-03-05T15:44:37;6.03;;;3.07;;
29280;SDS011;25048;49.590;11.026;2023-03-05T15:47:05;8.00;;;3.30;;
29280;SDS011;25048;49.590;11.026;2023-03-05T15:49:32;6.17;;;3.03;;
29280;SDS011;25048;49.590;11.026;2023-03-05T15:52:00;6.23;;;3.30;;
29280;SDS011;25048;49.590;11.026;2023-03-05T15:54:27;6.37;;;2.67;;
29280;SDS011;25048;49.590;11.026;2023-03-05T15:56:55;12.77;;;3.77;;